Kristina — J8AJ8 — position and weather

sailwx.info

Track history (hours):
 
Tides and Currents Weather Stations Pressure Air Temp Water Temp Dewpoint Dewpoint Depression Visibility Wind Speed Wind Dir Waves Ship Positions

Kristina

Last reported at 2018-Jan-31 03:43 UTC. Time now 2018-Feb-20 13:38 UTC.
Position N 25°39' W 079°56'.
Warning: this ship's position is 20 days out of date.

Length 64 m; draft 4.2 m.

Type: Cargo ship. MMSI: 375943000.

Date/timePositionNaut miles runAvg speedWind from/ knotsBaromVisibWave heightAir tempDewpointWater temp
2018-Jan-31 03:43N 25°39' W 079°56'1 4.7
2018-Jan-31 03:30N 25°39' W 079°57'2 4.8
2018-Jan-31 02:59N 25°41' W 079°59'2 4.7
2018-Jan-31 02:30N 25°43' W 080°01'2 4.9
2018-Jan-31 02:00N 25°44' W 080°03'3 5.8
2018-Jan-31 01:31N 25°46' W 080°05'3 5.5
2018-Jan-31 01:00N 25°46' W 080°08'4 4.1
2018-Jan-31 00:01N 25°47' W 080°12'2 3.2
2018-Jan-30 23:31N 25°47' W 080°14'0 0.0
2018-Jan-30 23:01N 25°47' W 080°14'0 0.0
2018-Jan-30 22:30N 25°47' W 080°14'0 0.0
2018-Jan-30 21:30N 25°47' W 080°14'0 0.0
2018-Jan-30 21:00N 25°47' W 080°14'0 0.0
2018-Jan-30 20:30N 25°47' W 080°14'0 0.0
2018-Jan-30 20:00N 25°47' W 080°14'0 0.0
2018-Jan-30 19:27N 25°47' W 080°14'0 0.0
2018-Jan-30 19:00N 25°47' W 080°14'0 0.0
2018-Jan-30 18:30N 25°47' W 080°14'0 0.0
2018-Jan-30 18:00N 25°47' W 080°14'0 0.0
2018-Jan-30 17:30N 25°47' W 080°14'0 0.0
2018-Jan-30 17:00N 25°47' W 080°14'0 0.0
2018-Jan-30 16:27N 25°47' W 080°14'0 0.0
2018-Jan-30 16:00N 25°47' W 080°14'0 0.0
2018-Jan-30 15:30N 25°47' W 080°14'0 0.0
2018-Jan-30 14:51N 25°47' W 080°14'0 0.0
2018-Jan-30 14:30N 25°47' W 080°14'0 0.0
2018-Jan-30 13:30N 25°47' W 080°14'0 0.0
2018-Jan-30 13:00N 25°47' W 080°14'0 0.0
2018-Jan-30 12:27N 25°47' W 080°14'0 0.0
2018-Jan-30 11:51N 25°47' W 080°14'0 0.0
2018-Jan-30 11:27N 25°47' W 080°14'0 0.0
2018-Jan-30 10:24N 25°47' W 080°14'0 0.0
2018-Jan-30 09:27N 25°47' W 080°14'0 0.0
2018-Jan-30 08:57N 25°47' W 080°14'0 0.0
2018-Jan-30 08:24N 25°47' W 080°14'0 0.0
2018-Jan-30 07:57N 25°47' W 080°14'0 0.0
2018-Jan-30 07:30N 25°47' W 080°14'0 0.0
2018-Jan-30 07:00N 25°47' W 080°14'0 0.0
2018-Jan-30 06:21N 25°47' W 080°14'0 0.0
2018-Jan-30 05:54N 25°47' W 080°14'0 0.0
2018-Jan-30 05:27N 25°47' W 080°14'0 0.0
2018-Jan-30 04:57N 25°47' W 080°14'0 0.0
2018-Jan-30 04:30N 25°47' W 080°14'0 0.0
2018-Jan-30 04:00N 25°47' W 080°14'0 0.0
2018-Jan-30 03:24N 25°47' W 080°14'0 0.0
2018-Jan-30 02:57N 25°47' W 080°14'0 0.0
2018-Jan-30 02:27N 25°47' W 080°14'0 0.0
2018-Jan-30 01:57N 25°47' W 080°14'0 0.0
2018-Jan-30 01:30N 25°47' W 080°14'0 0.0
2018-Jan-30 00:57N 25°47' W 080°14'0 0.0
2018-Jan-30 00:30N 25°47' W 080°14'0 0.0
2018-Jan-30 00:00N 25°47' W 080°14'0 0.0
2018-Jan-29 23:30N 25°47' W 080°14'0 0.0
2018-Jan-29 23:00N 25°47' W 080°14'0 0.0
2018-Jan-29 22:30N 25°47' W 080°14'0 0.0
2018-Jan-29 22:00N 25°47' W 080°14'0 0.0
2018-Jan-29 21:30N 25°47' W 080°14'0 0.0
2018-Jan-29 21:00N 25°47' W 080°14'0 0.0
2018-Jan-29 20:30N 25°47' W 080°14'0 0.0
2018-Jan-29 20:00N 25°47' W 080°14'0 0.0
2018-Jan-29 19:30N 25°47' W 080°14'0 0.0
2018-Jan-29 19:00N 25°47' W 080°14'0 0.0
2018-Jan-29 18:30N 25°47' W 080°14'0 0.0
2018-Jan-29 18:00N 25°47' W 080°14'0 0.0
2018-Jan-29 17:27N 25°47' W 080°14'0 0.0
2018-Jan-29 17:00N 25°47' W 080°14'0 0.0
2018-Jan-29 16:30N 25°47' W 080°14'0 0.0
2018-Jan-29 16:00N 25°47' W 080°14'0 0.0
2018-Jan-29 15:30N 25°47' W 080°14'0 0.0
2018-Jan-29 15:00N 25°47' W 080°14'0 0.0
2018-Jan-29 14:30N 25°47' W 080°14'0 0.0
2018-Jan-29 14:00N 25°47' W 080°14'0 0.0
2018-Jan-29 13:30N 25°47' W 080°14'0 0.0
2018-Jan-29 12:57N 25°47' W 080°14'0 0.0
2018-Jan-29 12:30N 25°47' W 080°14'0 0.0
2018-Jan-29 12:00N 25°47' W 080°14'0 0.0
2018-Jan-29 11:27N 25°47' W 080°14'0 0.0
2018-Jan-29 11:00N 25°47' W 080°14'0 0.0
2018-Jan-29 10:30N 25°47' W 080°14'0 0.0
2018-Jan-29 10:00N 25°47' W 080°14'0 0.0
2018-Jan-29 09:30N 25°47' W 080°14'0 0.0
2018-Jan-29 09:00N 25°47' W 080°14'0 0.0
2018-Jan-29 08:27N 25°47' W 080°14'0 0.0
2018-Jan-29 07:56N 25°47' W 080°14'0 0.0
2018-Jan-29 07:24N 25°47' W 080°14'0 0.0
2018-Jan-29 06:51N 25°47' W 080°14'0 0.0
2018-Jan-29 06:29N 25°47' W 080°14'0 0.0
2018-Jan-29 05:59N 25°47' W 080°14'0 0.0
2018-Jan-29 05:26N 25°47' W 080°14'0 0.0
2018-Jan-29 05:00N 25°47' W 080°14'0 0.0
2018-Jan-29 04:30N 25°47' W 080°14'0 0.0
2018-Jan-29 04:00N 25°47' W 080°14'0 0.0
2018-Jan-29 03:30N 25°47' W 080°14'0 0.0
2018-Jan-29 02:59N 25°47' W 080°14'0 0.0
2018-Jan-29 02:30N 25°47' W 080°14'0 0.0
2018-Jan-29 02:00N 25°47' W 080°14'0 0.0
2018-Jan-29 01:26N 25°47' W 080°14'0 0.0
2018-Jan-29 01:00N 25°47' W 080°14'0 0.0
2018-Jan-29 00:30N 25°47' W 080°14'0 0.0
2018-Jan-28 23:54N 25°47' W 080°14'0 0.0
2018-Jan-28 23:30N 25°47' W 080°14'0 0.0
2018-Jan-28 23:00N 25°47' W 080°14'0 0.0
2018-Jan-28 22:30N 25°47' W 080°14'0 0.0
2018-Jan-28 22:00N 25°47' W 080°14'0 0.0
2018-Jan-28 21:30N 25°47' W 080°14'0 0.0
2018-Jan-28 20:59N 25°47' W 080°14'0 0.0
2018-Jan-28 20:29N 25°47' W 080°14'0 0.0
2018-Jan-28 20:00N 25°47' W 080°14'0 0.0
2018-Jan-28 19:29N 25°47' W 080°14'0 0.0
2018-Jan-28 19:00N 25°47' W 080°14'0 0.0
2018-Jan-28 18:30N 25°47' W 080°14'0 0.0
2018-Jan-28 17:59N 25°47' W 080°14'0 0.0
2018-Jan-28 17:30N 25°47' W 080°14'0 0.0
2018-Jan-28 17:00N 25°47' W 080°14'0 0.0
2018-Jan-28 16:30N 25°47' W 080°14'0 0.0
2018-Jan-28 16:00N 25°47' W 080°14'0 0.0
2018-Jan-28 15:30N 25°47' W 080°14'0 0.0
2018-Jan-28 14:59N 25°47' W 080°14'0 0.0
2018-Jan-28 14:30N 25°47' W 080°14'0 0.0
2018-Jan-28 13:59N 25°47' W 080°14'0 0.0
2018-Jan-28 13:29N 25°47' W 080°14'0 0.0
2018-Jan-28 12:51N 25°47' W 080°14'0 0.0
2018-Jan-28 12:29N 25°47' W 080°14'0 0.0
2018-Jan-28 12:00N 25°47' W 080°14'0 0.0
2018-Jan-28 11:30N 25°47' W 080°14'0 0.0
2018-Jan-28 10:59N 25°47' W 080°14'0 0.0
2018-Jan-28 10:26N 25°47' W 080°14'0 0.0
2018-Jan-28 09:59N 25°47' W 080°14'0 0.0
2018-Jan-28 09:26N 25°47' W 080°14'0 0.0
2018-Jan-28 08:59N 25°47' W 080°14'0 0.0
2018-Jan-28 08:29N 25°47' W 080°14'0 0.0
2018-Jan-28 07:59N 25°47' W 080°14'0 0.0
2018-Jan-28 07:26N 25°47' W 080°14'0 0.0
2018-Jan-28 06:59N 25°47' W 080°14'0 0.0
2018-Jan-28 06:26N 25°47' W 080°14'0 0.0
2018-Jan-28 05:56N 25°47' W 080°14'0 0.0
2018-Jan-28 05:26N 25°47' W 080°14'0 0.0
2018-Jan-28 04:56N 25°47' W 080°14'0 0.0
2018-Jan-28 04:29N 25°47' W 080°14'0 0.0
2018-Jan-28 03:56N 25°47' W 080°14'0 0.0
2018-Jan-28 03:26N 25°47' W 080°14'0 0.0
2018-Jan-28 02:59N 25°47' W 080°14'0 0.0
2018-Jan-28 02:29N 25°47' W 080°14'0 0.0
2018-Jan-28 01:59N 25°47' W 080°14'0 0.0
2018-Jan-28 01:29N 25°47' W 080°14'0 0.0
2018-Jan-28 00:56N 25°47' W 080°14'0 0.0
2018-Jan-28 00:29N 25°47' W 080°14'0 0.0
2018-Jan-27 23:59N 25°47' W 080°14'0 0.0
2018-Jan-27 23:29N 25°47' W 080°14'0 0.0
2018-Jan-27 22:59N 25°47' W 080°14'0 0.0
2018-Jan-27 22:29N 25°47' W 080°14'0 0.0
2018-Jan-27 21:59N 25°47' W 080°14'0 0.0
2018-Jan-27 21:29N 25°47' W 080°14'0 0.0
2018-Jan-27 20:59N 25°47' W 080°14'0 0.0
2018-Jan-27 20:29N 25°47' W 080°14'0 0.0
2018-Jan-27 19:59N 25°47' W 080°14'0 0.0
2018-Jan-27 19:29N 25°47' W 080°14'0 0.0
2018-Jan-27 18:59N 25°47' W 080°14'0 0.0
2018-Jan-27 18:29N 25°47' W 080°14'0 0.0
2018-Jan-27 17:59N 25°47' W 080°14'0 0.0
2018-Jan-27 17:29N 25°47' W 080°14'0 0.0
2018-Jan-27 16:59N 25°47' W 080°14'0 0.0
2018-Jan-27 16:28N 25°47' W 080°14'0 0.0
2018-Jan-27 15:58N 25°47' W 080°14'0 0.0
2018-Jan-27 15:29N 25°47' W 080°14'0 0.0
2018-Jan-27 14:59N 25°47' W 080°14'0 0.0
2018-Jan-27 14:28N 25°47' W 080°14'0 0.0
2018-Jan-27 13:58N 25°47' W 080°14'0 0.0
2018-Jan-27 13:29N 25°47' W 080°14'0 0.0
2018-Jan-27 12:59N 25°47' W 080°14'0 0.0
2018-Jan-27 12:26N 25°47' W 080°14'0 0.0
2018-Jan-27 11:59N 25°47' W 080°14'0 0.0
2018-Jan-27 11:29N 25°47' W 080°14'0 0.0
2018-Jan-27 10:59N 25°47' W 080°14'0 0.0
2018-Jan-27 10:29N 25°47' W 080°14'0 0.0
2018-Jan-27 09:59N 25°47' W 080°14'0 0.0
2018-Jan-27 09:26N 25°47' W 080°14'0 0.0
2018-Jan-27 08:59N 25°47' W 080°14'0 0.0
2018-Jan-27 08:29N 25°47' W 080°14'0 0.0
2018-Jan-27 07:58N 25°47' W 080°14'0 0.0
2018-Jan-27 07:28N 25°47' W 080°14'0 0.0
2018-Jan-27 06:59N 25°47' W 080°14'0 0.0
2018-Jan-27 06:29N 25°47' W 080°14'0 0.0
2018-Jan-27 05:58N 25°47' W 080°14'0 0.0
2018-Jan-27 05:29N 25°47' W 080°14'0 0.0
2018-Jan-27 04:59N 25°47' W 080°14'0 0.0
2018-Jan-27 04:29N 25°47' W 080°14'0 0.0
2018-Jan-27 03:56N 25°47' W 080°14'0 0.0
2018-Jan-27 03:28N 25°47' W 080°14'0 0.0
2018-Jan-27 02:59N 25°47' W 080°14'0 0.0
2018-Jan-27 02:28N 25°47' W 080°14'0 0.0
2018-Jan-27 01:58N 25°47' W 080°14'0 0.0
2018-Jan-27 01:25N 25°47' W 080°14'0 0.0
2018-Jan-27 00:58N 25°47' W 080°14'0 0.0
2018-Jan-27 00:25N 25°47' W 080°14'0 0.0
2018-Jan-26 23:58N 25°47' W 080°14'0 0.0
2018-Jan-26 23:28N 25°47' W 080°14'0 0.0
2018-Jan-26 22:58N 25°47' W 080°14'0 0.0
2018-Jan-26 22:28N 25°47' W 080°14'0 0.0
2018-Jan-26 21:58N 25°47' W 080°14'0 0.0
2018-Jan-26 21:28N 25°47' W 080°14'0 0.0
2018-Jan-26 20:58N 25°47' W 080°14'0 0.0
2018-Jan-26 20:28N 25°47' W 080°14'0 0.0
2018-Jan-26 19:58N 25°47' W 080°14'0 0.0
2018-Jan-26 19:28N 25°47' W 080°14'0 0.0
2018-Jan-26 18:58N 25°47' W 080°14'0 0.0
2018-Jan-26 18:25N 25°47' W 080°14'0 0.0
2018-Jan-26 17:58N 25°47' W 080°14'0 0.0
2018-Jan-26 17:28N 25°47' W 080°14'0 0.0
2018-Jan-26 16:58N 25°47' W 080°14'0 0.0
2018-Jan-26 16:28N 25°47' W 080°14'0 0.0
2018-Jan-26 15:58N 25°47' W 080°14'0 0.0
2018-Jan-26 15:28N 25°47' W 080°14'0 0.0
2018-Jan-26 15:01N 25°47' W 080°14'0 0.0
2018-Jan-26 14:31N 25°47' W 080°14'0 0.0
2018-Jan-26 14:00N 25°47' W 080°14'0 0.0
2018-Jan-26 13:30N 25°47' W 080°14'0 0.0
2018-Jan-26 13:00N 25°47' W 080°14'0 0.0
2018-Jan-26 12:30N 25°47' W 080°14'0 0.0
2018-Jan-26 12:00N 25°47' W 080°14'0 0.0
2018-Jan-26 11:30N 25°47' W 080°14'0 0.0
2018-Jan-26 11:00N 25°47' W 080°14'0 0.0
2018-Jan-26 10:30N 25°47' W 080°14'0 0.0
2018-Jan-26 10:00N 25°47' W 080°14'0 0.0
2018-Jan-26 09:30N 25°47' W 080°14'0 0.0
2018-Jan-26 08:58N 25°47' W 080°14'0 0.0
2018-Jan-26 08:30N 25°47' W 080°14'0 0.0
2018-Jan-26 08:00N 25°47' W 080°14'0 0.0
2018-Jan-26 07:30N 25°47' W 080°14'0 0.0
2018-Jan-26 06:58N 25°47' W 080°14'0 0.0
2018-Jan-26 06:30N 25°47' W 080°14'0 0.0
2018-Jan-26 06:00N 25°47' W 080°14'0 0.0
2018-Jan-26 05:28N 25°47' W 080°14'0 0.0
2018-Jan-26 05:00N 25°47' W 080°14'0 0.0
2018-Jan-26 04:19N 25°47' W 080°14'0 0.0
2018-Jan-26 03:58N 25°47' W 080°14'0 0.0
2018-Jan-26 03:28N 25°47' W 080°14'0 0.0
2018-Jan-26 02:58N 25°47' W 080°14'0 0.0
2018-Jan-26 02:28N 25°47' W 080°14'0 0.0
2018-Jan-26 01:58N 25°47' W 080°14'0 0.0
2018-Jan-26 01:30N 25°47' W 080°14'0 0.0
2018-Jan-26 01:00N 25°47' W 080°14'0 0.0
2018-Jan-26 00:30N 25°47' W 080°14'0 0.0
2018-Jan-26 00:00N 25°47' W 080°14'0 0.0
2018-Jan-25 23:28N 25°47' W 080°14'0 0.0
2018-Jan-25 23:00N 25°47' W 080°14'0 0.0
2018-Jan-25 22:28N 25°47' W 080°14'0 0.0
2018-Jan-25 21:58N 25°47' W 080°14'0 0.0
2018-Jan-25 21:30N 25°47' W 080°14'0 0.0
2018-Jan-25 21:00N 25°47' W 080°14'0 0.0
2018-Jan-25 20:30N 25°47' W 080°14'0 0.0
2018-Jan-25 20:00N 25°47' W 080°14'0 0.0
2018-Jan-25 19:30N 25°47' W 080°14'0 0.0
2018-Jan-25 19:00N 25°47' W 080°14'0 0.0
2018-Jan-25 18:28N 25°47' W 080°14'0 0.0
2018-Jan-25 17:58N 25°47' W 080°14'0 0.0
2018-Jan-25 17:28N 25°47' W 080°14'0 0.0
2018-Jan-25 16:58N 25°47' W 080°14'0 0.0
2018-Jan-25 16:30N 25°47' W 080°14'0 0.0
2018-Jan-25 16:01N 25°47' W 080°14'0 0.0
2018-Jan-25 15:31N 25°47' W 080°14'0 0.0
2018-Jan-25 15:00N 25°47' W 080°14'0 0.0
2018-Jan-25 14:30N 25°47' W 080°14'0 0.0
2018-Jan-25 14:00N 25°47' W 080°14'0 0.0
2018-Jan-25 13:27N 25°47' W 080°14'0 0.0
2018-Jan-25 13:00N 25°47' W 080°14'0 0.0
2018-Jan-25 12:30N 25°47' W 080°14'0 0.0
2018-Jan-25 12:00N 25°47' W 080°14'0 0.0
2018-Jan-25 11:30N 25°47' W 080°14'0 0.0
2018-Jan-25 11:00N 25°47' W 080°14'0 0.0
2018-Jan-25 10:30N 25°47' W 080°14'0 0.0
2018-Jan-25 10:00N 25°47' W 080°14'0 0.0
2018-Jan-25 09:30N 25°47' W 080°14'0 0.0
2018-Jan-25 09:00N 25°47' W 080°14'0 0.0
2018-Jan-25 08:30N 25°47' W 080°14'0 0.0
2018-Jan-25 08:00N 25°47' W 080°14'0 0.0
2018-Jan-25 07:30N 25°47' W 080°14'0 0.0
2018-Jan-25 07:00N 25°47' W 080°14'0 0.0
2018-Jan-25 06:30N 25°47' W 080°14'0 0.0
2018-Jan-25 06:00N 25°47' W 080°14'0 0.0
2018-Jan-25 05:30N 25°47' W 080°14'0 0.0
2018-Jan-25 05:00N 25°47' W 080°14'0 0.0
2018-Jan-25 04:30N 25°47' W 080°14'0 0.0
2018-Jan-25 03:59N 25°47' W 080°14'0 0.0
2018-Jan-25 03:27N 25°47' W 080°14'0 0.0
2018-Jan-25 03:00N 25°47' W 080°14'0 0.0
2018-Jan-25 02:30N 25°47' W 080°14'0 0.0
2018-Jan-25 01:59N 25°47' W 080°14'0 0.0
2018-Jan-25 01:27N 25°47' W 080°14'0 0.0
2018-Jan-25 00:59N 25°47' W 080°14'0 0.0
2018-Jan-25 00:30N 25°47' W 080°14'0 0.0
2018-Jan-25 00:00N 25°47' W 080°14'0 0.0
2018-Jan-24 23:30N 25°47' W 080°14'0 0.0
2018-Jan-24 22:59N 25°47' W 080°14'0 0.0
2018-Jan-24 22:30N 25°47' W 080°14'0 0.0
2018-Jan-24 22:00N 25°47' W 080°14'0 0.0
2018-Jan-24 21:29N 25°47' W 080°14'0 0.0
2018-Jan-24 21:00N 25°47' W 080°14'0 0.0
2018-Jan-24 20:21N 25°47' W 080°14'0 0.0
2018-Jan-24 19:59N 25°47' W 080°14'0 0.0
2018-Jan-24 19:26N 25°47' W 080°14'0 0.0
2018-Jan-24 18:59N 25°47' W 080°14'0 0.0
2018-Jan-24 18:29N 25°47' W 080°14'0 0.0
2018-Jan-24 17:59N 25°47' W 080°14'0 0.0
2018-Jan-24 17:30N 25°47' W 080°14'0 0.0
2018-Jan-24 17:00N 25°47' W 080°14'0 0.0
2018-Jan-24 16:29N 25°47' W 080°14'0 0.0
2018-Jan-24 15:57N 25°47' W 080°14'0 0.0
2018-Jan-24 15:30N 25°47' W 080°14'0 0.0
2018-Jan-24 15:00N 25°47' W 080°14'0 0.0
2018-Jan-24 14:30N 25°47' W 080°14'0 0.0
2018-Jan-24 14:00N 25°47' W 080°14'0 0.0
2018-Jan-24 13:30N 25°47' W 080°14'0 0.0
2018-Jan-24 13:00N 25°47' W 080°14'0 0.0
2018-Jan-24 12:27N 25°47' W 080°14'0 0.0
2018-Jan-24 12:00N 25°47' W 080°14'0 0.0
2018-Jan-24 11:27N 25°47' W 080°14'0 0.0
2018-Jan-24 11:00N 25°47' W 080°14'0 0.0
2018-Jan-24 10:30N 25°47' W 080°14'0 0.0
2018-Jan-24 10:00N 25°47' W 080°14'0 0.0
2018-Jan-24 09:30N 25°47' W 080°14'0 0.0
2018-Jan-24 09:00N 25°47' W 080°14'0 0.0
2018-Jan-24 08:30N 25°47' W 080°14'0 0.0
2018-Jan-24 07:59N 25°47' W 080°14'0 0.0
2018-Jan-24 07:30N 25°47' W 080°14'0 0.0
2018-Jan-24 07:00N 25°47' W 080°14'0 0.0
2018-Jan-24 06:30N 25°47' W 080°14'0 0.0
2018-Jan-24 05:59N 25°47' W 080°14'0 0.0
2018-Jan-24 05:30N 25°47' W 080°14'0 0.0
2018-Jan-24 05:00N 25°47' W 080°14'0 0.0
2018-Jan-24 04:29N 25°47' W 080°14'0 0.0
2018-Jan-24 04:00N 25°47' W 080°14'0 0.0
2018-Jan-24 03:30N 25°47' W 080°14'0 0.0
2018-Jan-24 02:59N 25°47' W 080°14'0 0.0
2018-Jan-24 02:29N 25°47' W 080°14'0 0.0
2018-Jan-24 02:00N 25°47' W 080°14'0 0.0
2018-Jan-24 01:30N 25°47' W 080°14'0 0.0
2018-Jan-24 01:00N 25°47' W 080°14'0 0.0
2018-Jan-24 00:29N 25°47' W 080°14'0 0.0
2018-Jan-23 23:54N 25°47' W 080°14'0 0.0
2018-Jan-23 23:30N 25°47' W 080°14'0 0.0
2018-Jan-23 22:59N 25°47' W 080°14'0 0.0
2018-Jan-23 22:29N 25°47' W 080°14'0 0.0
2018-Jan-23 21:59N 25°47' W 080°14'0 0.0
2018-Jan-23 21:29N 25°47' W 080°14'0 0.0
2018-Jan-23 20:54N 25°47' W 080°14'0 0.0
2018-Jan-23 20:26N 25°47' W 080°14'0 0.0
2018-Jan-23 19:59N 25°47' W 080°14'0 0.0
2018-Jan-23 19:29N 25°47' W 080°14'0 0.0
2018-Jan-23 18:59N 25°47' W 080°14'0 0.0
2018-Jan-23 18:29N 25°47' W 080°14'0 0.0
2018-Jan-23 17:59N 25°47' W 080°14'0 0.0
2018-Jan-23 17:29N 25°47' W 080°14'0 0.0
2018-Jan-23 16:59N 25°47' W 080°14'0 0.0
2018-Jan-23 16:25N 25°47' W 080°14'0 0.0
2018-Jan-23 15:59N 25°47' W 080°14'0 0.0
2018-Jan-23 15:30N 25°47' W 080°14'0 0.0
2018-Jan-23 14:53N 25°47' W 080°14'0 0.0
2018-Jan-23 14:29N 25°47' W 080°14'0 0.0
2018-Jan-23 13:59N 25°47' W 080°14'0 0.0
2018-Jan-23 13:29N 25°47' W 080°14'0 0.0
2018-Jan-23 12:59N 25°47' W 080°14'0 0.0
2018-Jan-23 12:29N 25°47' W 080°14'0 0.0
2018-Jan-23 11:59N 25°47' W 080°14'0 0.0
2018-Jan-23 11:29N 25°47' W 080°14'0 0.0
2018-Jan-23 10:59N 25°47' W 080°14'0 0.0
2018-Jan-23 10:29N 25°47' W 080°14'0 0.0
2018-Jan-23 09:59N 25°47' W 080°14'0 0.0
2018-Jan-23 09:29N 25°47' W 080°14'0 0.0
2018-Jan-23 08:59N 25°47' W 080°14'0 0.0
2018-Jan-23 08:29N 25°47' W 080°14'0 0.0
2018-Jan-23 07:59N 25°47' W 080°14'0 0.0
2018-Jan-23 07:29N 25°47' W 080°14'0 0.0
2018-Jan-23 06:59N 25°47' W 080°14'0 0.0
2018-Jan-23 06:29N 25°47' W 080°14'0 0.0
2018-Jan-23 05:59N 25°47' W 080°14'0 0.0
2018-Jan-23 05:29N 25°47' W 080°14'0 0.0
2018-Jan-23 04:59N 25°47' W 080°14'0 0.0
2018-Jan-23 04:29N 25°47' W 080°14'0 0.0
2018-Jan-23 03:59N 25°47' W 080°14'0 0.0
2018-Jan-23 03:29N 25°47' W 080°14'0 0.0
2018-Jan-23 02:59N 25°47' W 080°14'0 0.0
2018-Jan-23 02:29N 25°47' W 080°14'0 0.0
2018-Jan-23 01:59N 25°47' W 080°14'0 0.0
2018-Jan-23 01:29N 25°47' W 080°14'0 0.0
2018-Jan-23 00:59N 25°47' W 080°14'0 0.0
2018-Jan-23 00:29N 25°47' W 080°14'0 0.0
2018-Jan-22 23:59N 25°47' W 080°14'0 0.0
2018-Jan-22 23:29N 25°47' W 080°14'0 0.0
2018-Jan-22 22:59N 25°47' W 080°14'0 0.0
2018-Jan-22 22:29N 25°47' W 080°14'0 0.0
2018-Jan-22 21:59N 25°47' W 080°14'0 0.0
2018-Jan-22 21:29N 25°47' W 080°14'0 0.0
2018-Jan-22 20:59N 25°47' W 080°14'0 0.0
2018-Jan-22 20:29N 25°47' W 080°14'0 0.0
2018-Jan-22 19:59N 25°47' W 080°14'0 0.0
2018-Jan-22 19:29N 25°47' W 080°14'0 0.0
2018-Jan-22 18:59N 25°47' W 080°14'0 0.0
2018-Jan-22 18:29N 25°47' W 080°14'0 0.0
2018-Jan-22 17:58N 25°47' W 080°14'0 0.0
2018-Jan-22 17:25N 25°47' W 080°14'0 0.0
2018-Jan-22 16:56N 25°47' W 080°14'0 0.0
2018-Jan-22 16:28N 25°47' W 080°14'0 0.0
2018-Jan-22 15:55N 25°47' W 080°14'0 0.0
2018-Jan-22 15:29N 25°47' W 080°14'0 0.0
2018-Jan-22 14:58N 25°47' W 080°14'0 0.0
2018-Jan-22 14:28N 25°47' W 080°14'0 0.0
2018-Jan-22 13:58N 25°47' W 080°14'0 0.0
2018-Jan-22 13:28N 25°47' W 080°14'0 0.0
2018-Jan-22 12:58N 25°47' W 080°14'0 0.0
2018-Jan-22 12:28N 25°47' W 080°14'0 0.0
2018-Jan-22 11:58N 25°47' W 080°14'0 0.0
2018-Jan-22 11:28N 25°47' W 080°14'0 0.0
2018-Jan-22 10:58N 25°47' W 080°14'0 0.0
2018-Jan-22 10:28N 25°47' W 080°14'0 0.0
2018-Jan-22 09:58N 25°47' W 080°14'0 0.0
2018-Jan-22 09:28N 25°47' W 080°14'0 0.0
2018-Jan-22 08:58N 25°47' W 080°14'0 0.0
2018-Jan-22 08:28N 25°47' W 080°14'0 0.0
2018-Jan-22 08:01N 25°47' W 080°14'0 0.0
2018-Jan-22 07:31N 25°47' W 080°14'0 0.0
2018-Jan-22 07:00N 25°47' W 080°14'0 0.0
2018-Jan-22 06:30N 25°47' W 080°14'0 0.0
2018-Jan-22 06:00N 25°47' W 080°14'0 0.0
2018-Jan-22 05:30N 25°47' W 080°14'0 0.0
2018-Jan-22 05:00N 25°47' W 080°14'0 0.0
2018-Jan-22 04:28N 25°47' W 080°14'0 0.0
2018-Jan-22 04:00N 25°47' W 080°14'0 0.0
2018-Jan-22 03:30N 25°47' W 080°14'0 0.0
2018-Jan-22 03:00N 25°47' W 080°14'0 0.0
2018-Jan-22 02:30N 25°47' W 080°14'0 0.0
2018-Jan-22 02:00N 25°47' W 080°14'0 0.0
2018-Jan-22 01:30N 25°47' W 080°14'0 0.0
2018-Jan-22 01:00N 25°47' W 080°14'0 0.0
2018-Jan-22 00:30N 25°47' W 080°14'0 0.0
2018-Jan-21 23:58N 25°47' W 080°14'0 0.0
2018-Jan-21 23:28N 25°47' W 080°14'0 0.0
2018-Jan-21 23:00N 25°47' W 080°14'0 0.0
2018-Jan-21 22:30N 25°47' W 080°14'0 0.0
2018-Jan-21 22:00N 25°47' W 080°14'0 0.0
2018-Jan-21 21:30N 25°47' W 080°14'0 0.0
2018-Jan-21 20:58N 25°47' W 080°14'0 0.0
2018-Jan-21 20:30N 25°47' W 080°14'0 0.0
2018-Jan-21 20:00N 25°47' W 080°14'0 0.0
2018-Jan-21 19:30N 25°47' W 080°14'0 0.0
2018-Jan-21 19:00N 25°47' W 080°14'0 0.0
2018-Jan-21 18:30N 25°47' W 080°14'0 0.0
2018-Jan-21 17:51N 25°47' W 080°14'0 0.0
2018-Jan-21 17:30N 25°47' W 080°14'0 0.0
2018-Jan-21 16:54N 25°47' W 080°14'0 0.0
2018-Jan-21 16:27N 25°47' W 080°14'0 0.0
2018-Jan-21 15:57N 25°47' W 080°14'0 0.0
2018-Jan-21 15:27N 25°47' W 080°14'0 0.0
2018-Jan-21 14:57N 25°47' W 080°14'0 0.0
2018-Jan-21 14:30N 25°47' W 080°14'0 0.0
2018-Jan-21 14:00N 25°47' W 080°14'0 0.0
2018-Jan-21 13:30N 25°47' W 080°14'0 0.0
2018-Jan-21 13:00N 25°47' W 080°14'0 0.0
2018-Jan-21 12:30N 25°47' W 080°14'0 0.0
2018-Jan-21 12:00N 25°47' W 080°14'0 0.0
2018-Jan-21 11:30N 25°47' W 080°14'0 0.0
2018-Jan-21 10:57N 25°47' W 080°14'0 0.0
2018-Jan-21 10:27N 25°47' W 080°14'0 0.0
2018-Jan-21 10:00N 25°47' W 080°14'0 0.0
2018-Jan-21 09:30N 25°47' W 080°14'0 0.0
2018-Jan-21 08:57N 25°47' W 080°14'0 0.0
2018-Jan-21 08:24N 25°47' W 080°14'0 0.0
2018-Jan-21 07:57N 25°47' W 080°14'0 0.0
2018-Jan-21 07:30N 25°47' W 080°14'0 0.0
2018-Jan-21 06:57N 25°47' W 080°14'0 0.0
2018-Jan-21 06:30N 25°47' W 080°14'0 0.0
2018-Jan-21 06:00N 25°47' W 080°14'0 0.0
2018-Jan-21 05:30N 25°47' W 080°14'0 0.0
2018-Jan-21 05:00N 25°47' W 080°14'0 0.0
2018-Jan-21 04:30N 25°47' W 080°14'0 0.0
2018-Jan-21 04:00N 25°47' W 080°14'  
Track history (hours):
 
Tides and Currents Weather Stations Pressure Air Temp Water Temp Dewpoint Dewpoint Depression Visibility Wind Speed Wind Dir Waves Ship Positions

Kristina

Last reported at 2018-Jan-31 03:43 UTC. Time now 2018-Feb-20 13:38 UTC.
Position N 25°39' W 079°56'.
Warning: this ship's position is 20 days out of date.

Length 64 m; draft 4.2 m.

Type: Cargo ship. MMSI: 375943000.

Date/timePositionNaut miles runAvg speedWind from/ knotsBaromVisibWave heightAir tempDewpointWater temp
2018-Jan-31 03:43N 25°39' W 079°56'1 4.7
2018-Jan-31 03:30N 25°39' W 079°57'2 4.8
2018-Jan-31 02:59N 25°41' W 079°59'2 4.7
2018-Jan-31 02:30N 25°43' W 080°01'2 4.9
2018-Jan-31 02:00N 25°44' W 080°03'3 5.8
2018-Jan-31 01:31N 25°46' W 080°05'3 5.5
2018-Jan-31 01:00N 25°46' W 080°08'4 4.1
2018-Jan-31 00:01N 25°47' W 080°12'2 3.2
2018-Jan-30 23:31N 25°47' W 080°14'0 0.0
2018-Jan-30 23:01N 25°47' W 080°14'0 0.0
2018-Jan-30 22:30N 25°47' W 080°14'0 0.0
2018-Jan-30 21:30N 25°47' W 080°14'0 0.0
2018-Jan-30 21:00N 25°47' W 080°14'0 0.0
2018-Jan-30 20:30N 25°47' W 080°14'0 0.0
2018-Jan-30 20:00N 25°47' W 080°14'0 0.0
2018-Jan-30 19:27N 25°47' W 080°14'0 0.0
2018-Jan-30 19:00N 25°47' W 080°14'0 0.0
2018-Jan-30 18:30N 25°47' W 080°14'0 0.0
2018-Jan-30 18:00N 25°47' W 080°14'0 0.0
2018-Jan-30 17:30N 25°47' W 080°14'0 0.0
2018-Jan-30 17:00N 25°47' W 080°14'0 0.0
2018-Jan-30 16:27N 25°47' W 080°14'0 0.0
2018-Jan-30 16:00N 25°47' W 080°14'0 0.0
2018-Jan-30 15:30N 25°47' W 080°14'0 0.0
2018-Jan-30 14:51N 25°47' W 080°14'0 0.0
2018-Jan-30 14:30N 25°47' W 080°14'0 0.0
2018-Jan-30 13:30N 25°47' W 080°14'0 0.0
2018-Jan-30 13:00N 25°47' W 080°14'0 0.0
2018-Jan-30 12:27N 25°47' W 080°14'0 0.0
2018-Jan-30 11:51N 25°47' W 080°14'0 0.0
2018-Jan-30 11:27N 25°47' W 080°14'0 0.0
2018-Jan-30 10:24N 25°47' W 080°14'0 0.0
2018-Jan-30 09:27N 25°47' W 080°14'0 0.0
2018-Jan-30 08:57N 25°47' W 080°14'0 0.0
2018-Jan-30 08:24N 25°47' W 080°14'0 0.0
2018-Jan-30 07:57N 25°47' W 080°14'0 0.0
2018-Jan-30 07:30N 25°47' W 080°14'0 0.0
2018-Jan-30 07:00N 25°47' W 080°14'0 0.0
2018-Jan-30 06:21N 25°47' W 080°14'0 0.0
2018-Jan-30 05:54N 25°47' W 080°14'0 0.0
2018-Jan-30 05:27N 25°47' W 080°14'0 0.0
2018-Jan-30 04:57N 25°47' W 080°14'0 0.0
2018-Jan-30 04:30N 25°47' W 080°14'0 0.0
2018-Jan-30 04:00N 25°47' W 080°14'0 0.0
2018-Jan-30 03:24N 25°47' W 080°14'0 0.0
2018-Jan-30 02:57N 25°47' W 080°14'0 0.0
2018-Jan-30 02:27N 25°47' W 080°14'0 0.0
2018-Jan-30 01:57N 25°47' W 080°14'0 0.0
2018-Jan-30 01:30N 25°47' W 080°14'0 0.0
2018-Jan-30 00:57N 25°47' W 080°14'0 0.0
2018-Jan-30 00:30N 25°47' W 080°14'0 0.0
2018-Jan-30 00:00N 25°47' W 080°14'0 0.0
2018-Jan-29 23:30N 25°47' W 080°14'0 0.0
2018-Jan-29 23:00N 25°47' W 080°14'0 0.0
2018-Jan-29 22:30N 25°47' W 080°14'0 0.0
2018-Jan-29 22:00N 25°47' W 080°14'0 0.0
2018-Jan-29 21:30N 25°47' W 080°14'0 0.0
2018-Jan-29 21:00N 25°47' W 080°14'0 0.0
2018-Jan-29 20:30N 25°47' W 080°14'0 0.0
2018-Jan-29 20:00N 25°47' W 080°14'0 0.0
2018-Jan-29 19:30N 25°47' W 080°14'0 0.0
2018-Jan-29 19:00N 25°47' W 080°14'0 0.0
2018-Jan-29 18:30N 25°47' W 080°14'0 0.0
2018-Jan-29 18:00N 25°47' W 080°14'0 0.0
2018-Jan-29 17:27N 25°47' W 080°14'0 0.0
2018-Jan-29 17:00N 25°47' W 080°14'0 0.0
2018-Jan-29 16:30N 25°47' W 080°14'0 0.0
2018-Jan-29 16:00N 25°47' W 080°14'0 0.0
2018-Jan-29 15:30N 25°47' W 080°14'0 0.0
2018-Jan-29 15:00N 25°47' W 080°14'0 0.0
2018-Jan-29 14:30N 25°47' W 080°14'0 0.0
2018-Jan-29 14:00N 25°47' W 080°14'0 0.0
2018-Jan-29 13:30N 25°47' W 080°14'0 0.0
2018-Jan-29 12:57N 25°47' W 080°14'0 0.0
2018-Jan-29 12:30N 25°47' W 080°14'0 0.0
2018-Jan-29 12:00N 25°47' W 080°14'0 0.0
2018-Jan-29 11:27N 25°47' W 080°14'0 0.0
2018-Jan-29 11:00N 25°47' W 080°14'0 0.0
2018-Jan-29 10:30N 25°47' W 080°14'0 0.0
2018-Jan-29 10:00N 25°47' W 080°14'0 0.0
2018-Jan-29 09:30N 25°47' W 080°14'0 0.0
2018-Jan-29 09:00N 25°47' W 080°14'0 0.0
2018-Jan-29 08:27N 25°47' W 080°14'0 0.0
2018-Jan-29 07:56N 25°47' W 080°14'0 0.0
2018-Jan-29 07:24N 25°47' W 080°14'0 0.0
2018-Jan-29 06:51N 25°47' W 080°14'0 0.0
2018-Jan-29 06:29N 25°47' W 080°14'0 0.0
2018-Jan-29 05:59N 25°47' W 080°14'0 0.0
2018-Jan-29 05:26N 25°47' W 080°14'0 0.0
2018-Jan-29 05:00N 25°47' W 080°14'0 0.0
2018-Jan-29 04:30N 25°47' W 080°14'0 0.0
2018-Jan-29 04:00N 25°47' W 080°14'0 0.0
2018-Jan-29 03:30N 25°47' W 080°14'0 0.0
2018-Jan-29 02:59N 25°47' W 080°14'0 0.0
2018-Jan-29 02:30N 25°47' W 080°14'0 0.0
2018-Jan-29 02:00N 25°47' W 080°14'0 0.0
2018-Jan-29 01:26N 25°47' W 080°14'0 0.0
2018-Jan-29 01:00N 25°47' W 080°14'0 0.0
2018-Jan-29 00:30N 25°47' W 080°14'0 0.0
2018-Jan-28 23:54N 25°47' W 080°14'0 0.0
2018-Jan-28 23:30N 25°47' W 080°14'0 0.0
2018-Jan-28 23:00N 25°47' W 080°14'0 0.0
2018-Jan-28 22:30N 25°47' W 080°14'0 0.0
2018-Jan-28 22:00N 25°47' W 080°14'0 0.0
2018-Jan-28 21:30N 25°47' W 080°14'0 0.0
2018-Jan-28 20:59N 25°47' W 080°14'0 0.0
2018-Jan-28 20:29N 25°47' W 080°14'0 0.0
2018-Jan-28 20:00N 25°47' W 080°14'0 0.0
2018-Jan-28 19:29N 25°47' W 080°14'0 0.0
2018-Jan-28 19:00N 25°47' W 080°14'0 0.0
2018-Jan-28 18:30N 25°47' W 080°14'0 0.0
2018-Jan-28 17:59N 25°47' W 080°14'0 0.0
2018-Jan-28 17:30N 25°47' W 080°14'0 0.0
2018-Jan-28 17:00N 25°47' W 080°14'0 0.0
2018-Jan-28 16:30N 25°47' W 080°14'0 0.0
2018-Jan-28 16:00N 25°47' W 080°14'0 0.0
2018-Jan-28 15:30N 25°47' W 080°14'0 0.0
2018-Jan-28 14:59N 25°47' W 080°14'0 0.0
2018-Jan-28 14:30N 25°47' W 080°14'0 0.0
2018-Jan-28 13:59N 25°47' W 080°14'0 0.0
2018-Jan-28 13:29N 25°47' W 080°14'0 0.0
2018-Jan-28 12:51N 25°47' W 080°14'0 0.0
2018-Jan-28 12:29N 25°47' W 080°14'0 0.0
2018-Jan-28 12:00N 25°47' W 080°14'0 0.0
2018-Jan-28 11:30N 25°47' W 080°14'0 0.0
2018-Jan-28 10:59N 25°47' W 080°14'0 0.0
2018-Jan-28 10:26N 25°47' W 080°14'0 0.0
2018-Jan-28 09:59N 25°47' W 080°14'0 0.0
2018-Jan-28 09:26N 25°47' W 080°14'0 0.0
2018-Jan-28 08:59N 25°47' W 080°14'0 0.0
2018-Jan-28 08:29N 25°47' W 080°14'0 0.0
2018-Jan-28 07:59N 25°47' W 080°14'0 0.0
2018-Jan-28 07:26N 25°47' W 080°14'0 0.0
2018-Jan-28 06:59N 25°47' W 080°14'0 0.0
2018-Jan-28 06:26N 25°47' W 080°14'0 0.0
2018-Jan-28 05:56N 25°47' W 080°14'0 0.0
2018-Jan-28 05:26N 25°47' W 080°14'0 0.0
2018-Jan-28 04:56N 25°47' W 080°14'0 0.0
2018-Jan-28 04:29N 25°47' W 080°14'0 0.0
2018-Jan-28 03:56N 25°47' W 080°14'0 0.0
2018-Jan-28 03:26N 25°47' W 080°14'0 0.0
2018-Jan-28 02:59N 25°47' W 080°14'0 0.0
2018-Jan-28 02:29N 25°47' W 080°14'0 0.0
2018-Jan-28 01:59N 25°47' W 080°14'0 0.0
2018-Jan-28 01:29N 25°47' W 080°14'0 0.0
2018-Jan-28 00:56N 25°47' W 080°14'0 0.0
2018-Jan-28 00:29N 25°47' W 080°14'0 0.0
2018-Jan-27 23:59N 25°47' W 080°14'0 0.0
2018-Jan-27 23:29N 25°47' W 080°14'0 0.0
2018-Jan-27 22:59N 25°47' W 080°14'0 0.0
2018-Jan-27 22:29N 25°47' W 080°14'0 0.0
2018-Jan-27 21:59N 25°47' W 080°14'0 0.0
2018-Jan-27 21:29N 25°47' W 080°14'0 0.0
2018-Jan-27 20:59N 25°47' W 080°14'0 0.0
2018-Jan-27 20:29N 25°47' W 080°14'0 0.0
2018-Jan-27 19:59N 25°47' W 080°14'0 0.0
2018-Jan-27 19:29N 25°47' W 080°14'0 0.0
2018-Jan-27 18:59N 25°47' W 080°14'0 0.0
2018-Jan-27 18:29N 25°47' W 080°14'0 0.0
2018-Jan-27 17:59N 25°47' W 080°14'0 0.0
2018-Jan-27 17:29N 25°47' W 080°14'0 0.0
2018-Jan-27 16:59N 25°47' W 080°14'0 0.0
2018-Jan-27 16:28N 25°47' W 080°14'0 0.0
2018-Jan-27 15:58N 25°47' W 080°14'0 0.0
2018-Jan-27 15:29N 25°47' W 080°14'0 0.0
2018-Jan-27 14:59N 25°47' W 080°14'0 0.0
2018-Jan-27 14:28N 25°47' W 080°14'0 0.0
2018-Jan-27 13:58N 25°47' W 080°14'0 0.0
2018-Jan-27 13:29N 25°47' W 080°14'0 0.0
2018-Jan-27 12:59N 25°47' W 080°14'0 0.0
2018-Jan-27 12:26N 25°47' W 080°14'0 0.0
2018-Jan-27 11:59N 25°47' W 080°14'0 0.0
2018-Jan-27 11:29N 25°47' W 080°14'0 0.0
2018-Jan-27 10:59N 25°47' W 080°14'0 0.0
2018-Jan-27 10:29N 25°47' W 080°14'0 0.0
2018-Jan-27 09:59N 25°47' W 080°14'0 0.0
2018-Jan-27 09:26N 25°47' W 080°14'0 0.0
2018-Jan-27 08:59N 25°47' W 080°14'0 0.0
2018-Jan-27 08:29N 25°47' W 080°14'0 0.0
2018-Jan-27 07:58N 25°47' W 080°14'0 0.0
2018-Jan-27 07:28N 25°47' W 080°14'0 0.0
2018-Jan-27 06:59N 25°47' W 080°14'0 0.0
2018-Jan-27 06:29N 25°47' W 080°14'0 0.0
2018-Jan-27 05:58N 25°47' W 080°14'0 0.0
2018-Jan-27 05:29N 25°47' W 080°14'0 0.0
2018-Jan-27 04:59N 25°47' W 080°14'0 0.0
2018-Jan-27 04:29N 25°47' W 080°14'0 0.0
2018-Jan-27 03:56N 25°47' W 080°14'0 0.0
2018-Jan-27 03:28N 25°47' W 080°14'0 0.0
2018-Jan-27 02:59N 25°47' W 080°14'0 0.0
2018-Jan-27 02:28N 25°47' W 080°14'0 0.0
2018-Jan-27 01:58N 25°47' W 080°14'0 0.0
2018-Jan-27 01:25N 25°47' W 080°14'0 0.0
2018-Jan-27 00:58N 25°47' W 080°14'0 0.0
2018-Jan-27 00:25N 25°47' W 080°14'0 0.0
2018-Jan-26 23:58N 25°47' W 080°14'0 0.0
2018-Jan-26 23:28N 25°47' W 080°14'0 0.0
2018-Jan-26 22:58N 25°47' W 080°14'0 0.0
2018-Jan-26 22:28N 25°47' W 080°14'0 0.0
2018-Jan-26 21:58N 25°47' W 080°14'0 0.0
2018-Jan-26 21:28N 25°47' W 080°14'0 0.0
2018-Jan-26 20:58N 25°47' W 080°14'0 0.0
2018-Jan-26 20:28N 25°47' W 080°14'0 0.0
2018-Jan-26 19:58N 25°47' W 080°14'0 0.0
2018-Jan-26 19:28N 25°47' W 080°14'0 0.0
2018-Jan-26 18:58N 25°47' W 080°14'0 0.0
2018-Jan-26 18:25N 25°47' W 080°14'0 0.0
2018-Jan-26 17:58N 25°47' W 080°14'0 0.0
2018-Jan-26 17:28N 25°47' W 080°14'0 0.0
2018-Jan-26 16:58N 25°47' W 080°14'0 0.0
2018-Jan-26 16:28N 25°47' W 080°14'0 0.0
2018-Jan-26 15:58N 25°47' W 080°14'0 0.0
2018-Jan-26 15:28N 25°47' W 080°14'0 0.0
2018-Jan-26 15:01N 25°47' W 080°14'0 0.0
2018-Jan-26 14:31N 25°47' W 080°14'0 0.0
2018-Jan-26 14:00N 25°47' W 080°14'0 0.0
2018-Jan-26 13:30N 25°47' W 080°14'0 0.0
2018-Jan-26 13:00N 25°47' W 080°14'0 0.0
2018-Jan-26 12:30N 25°47' W 080°14'0 0.0
2018-Jan-26 12:00N 25°47' W 080°14'0 0.0
2018-Jan-26 11:30N 25°47' W 080°14'0 0.0
2018-Jan-26 11:00N 25°47' W 080°14'0 0.0
2018-Jan-26 10:30N 25°47' W 080°14'0 0.0
2018-Jan-26 10:00N 25°47' W 080°14'0 0.0
2018-Jan-26 09:30N 25°47' W 080°14'0 0.0
2018-Jan-26 08:58N 25°47' W 080°14'0 0.0
2018-Jan-26 08:30N 25°47' W 080°14'0 0.0
2018-Jan-26 08:00N 25°47' W 080°14'0 0.0
2018-Jan-26 07:30N 25°47' W 080°14'0 0.0
2018-Jan-26 06:58N 25°47' W 080°14'0 0.0
2018-Jan-26 06:30N 25°47' W 080°14'0 0.0
2018-Jan-26 06:00N 25°47' W 080°14'0 0.0
2018-Jan-26 05:28N 25°47' W 080°14'0 0.0
2018-Jan-26 05:00N 25°47' W 080°14'0 0.0
2018-Jan-26 04:19N 25°47' W 080°14'0 0.0
2018-Jan-26 03:58N 25°47' W 080°14'0 0.0
2018-Jan-26 03:28N 25°47' W 080°14'0 0.0
2018-Jan-26 02:58N 25°47' W 080°14'0 0.0
2018-Jan-26 02:28N 25°47' W 080°14'0 0.0
2018-Jan-26 01:58N 25°47' W 080°14'0 0.0
2018-Jan-26 01:30N 25°47' W 080°14'0 0.0
2018-Jan-26 01:00N 25°47' W 080°14'0 0.0
2018-Jan-26 00:30N 25°47' W 080°14'0 0.0
2018-Jan-26 00:00N 25°47' W 080°14'0 0.0
2018-Jan-25 23:28N 25°47' W 080°14'0 0.0
2018-Jan-25 23:00N 25°47' W 080°14'0 0.0
2018-Jan-25 22:28N 25°47' W 080°14'0 0.0
2018-Jan-25 21:58N 25°47' W 080°14'0 0.0
2018-Jan-25 21:30N 25°47' W 080°14'0 0.0
2018-Jan-25 21:00N 25°47' W 080°14'0 0.0
2018-Jan-25 20:30N 25°47' W 080°14'0 0.0
2018-Jan-25 20:00N 25°47' W 080°14'0 0.0
2018-Jan-25 19:30N 25°47' W 080°14'0 0.0
2018-Jan-25 19:00N 25°47' W 080°14'0 0.0
2018-Jan-25 18:28N 25°47' W 080°14'0 0.0
2018-Jan-25 17:58N 25°47' W 080°14'0 0.0
2018-Jan-25 17:28N 25°47' W 080°14'0 0.0
2018-Jan-25 16:58N 25°47' W 080°14'0 0.0
2018-Jan-25 16:30N 25°47' W 080°14'0 0.0
2018-Jan-25 16:01N 25°47' W 080°14'0 0.0
2018-Jan-25 15:31N 25°47' W 080°14'0 0.0
2018-Jan-25 15:00N 25°47' W 080°14'0 0.0
2018-Jan-25 14:30N 25°47' W 080°14'0 0.0
2018-Jan-25 14:00N 25°47' W 080°14'0 0.0
2018-Jan-25 13:27N 25°47' W 080°14'0 0.0
2018-Jan-25 13:00N 25°47' W 080°14'0 0.0
2018-Jan-25 12:30N 25°47' W 080°14'0 0.0
2018-Jan-25 12:00N 25°47' W 080°14'0 0.0
2018-Jan-25 11:30N 25°47' W 080°14'0 0.0
2018-Jan-25 11:00N 25°47' W 080°14'0 0.0
2018-Jan-25 10:30N 25°47' W 080°14'0 0.0
2018-Jan-25 10:00N 25°47' W 080°14'0 0.0
2018-Jan-25 09:30N 25°47' W 080°14'0 0.0
2018-Jan-25 09:00N 25°47' W 080°14'0 0.0
2018-Jan-25 08:30N 25°47' W 080°14'0 0.0
2018-Jan-25 08:00N 25°47' W 080°14'0 0.0
2018-Jan-25 07:30N 25°47' W 080°14'0 0.0
2018-Jan-25 07:00N 25°47' W 080°14'0 0.0
2018-Jan-25 06:30N 25°47' W 080°14'0 0.0
2018-Jan-25 06:00N 25°47' W 080°14'0 0.0
2018-Jan-25 05:30N 25°47' W 080°14'0 0.0
2018-Jan-25 05:00N 25°47' W 080°14'0 0.0
2018-Jan-25 04:30N 25°47' W 080°14'0 0.0
2018-Jan-25 03:59N 25°47' W 080°14'0 0.0
2018-Jan-25 03:27N 25°47' W 080°14'0 0.0
2018-Jan-25 03:00N 25°47' W 080°14'0 0.0
2018-Jan-25 02:30N 25°47' W 080°14'0 0.0
2018-Jan-25 01:59N 25°47' W 080°14'0 0.0
2018-Jan-25 01:27N 25°47' W 080°14'0 0.0
2018-Jan-25 00:59N 25°47' W 080°14'0 0.0
2018-Jan-25 00:30N 25°47' W 080°14'0 0.0
2018-Jan-25 00:00N 25°47' W 080°14'0 0.0
2018-Jan-24 23:30N 25°47' W 080°14'0 0.0
2018-Jan-24 22:59N 25°47' W 080°14'0 0.0
2018-Jan-24 22:30N 25°47' W 080°14'0 0.0
2018-Jan-24 22:00N 25°47' W 080°14'0 0.0
2018-Jan-24 21:29N 25°47' W 080°14'0 0.0
2018-Jan-24 21:00N 25°47' W 080°14'0 0.0
2018-Jan-24 20:21N 25°47' W 080°14'0 0.0
2018-Jan-24 19:59N 25°47' W 080°14'0 0.0
2018-Jan-24 19:26N 25°47' W 080°14'0 0.0
2018-Jan-24 18:59N 25°47' W 080°14'0 0.0
2018-Jan-24 18:29N 25°47' W 080°14'0 0.0
2018-Jan-24 17:59N 25°47' W 080°14'0 0.0
2018-Jan-24 17:30N 25°47' W 080°14'0 0.0
2018-Jan-24 17:00N 25°47' W 080°14'0 0.0
2018-Jan-24 16:29N 25°47' W 080°14'0 0.0
2018-Jan-24 15:57N 25°47' W 080°14'0 0.0
2018-Jan-24 15:30N 25°47' W 080°14'0 0.0
2018-Jan-24 15:00N 25°47' W 080°14'0 0.0
2018-Jan-24 14:30N 25°47' W 080°14'0 0.0
2018-Jan-24 14:00N 25°47' W 080°14'0 0.0
2018-Jan-24 13:30N 25°47' W 080°14'0 0.0
2018-Jan-24 13:00N 25°47' W 080°14'0 0.0
2018-Jan-24 12:27N 25°47' W 080°14'0 0.0
2018-Jan-24 12:00N 25°47' W 080°14'0 0.0
2018-Jan-24 11:27N 25°47' W 080°14'0 0.0
2018-Jan-24 11:00N 25°47' W 080°14'0 0.0
2018-Jan-24 10:30N 25°47' W 080°14'0 0.0
2018-Jan-24 10:00N 25°47' W 080°14'0 0.0
2018-Jan-24 09:30N 25°47' W 080°14'0 0.0
2018-Jan-24 09:00N 25°47' W 080°14'0 0.0
2018-Jan-24 08:30N 25°47' W 080°14'0 0.0
2018-Jan-24 07:59N 25°47' W 080°14'0 0.0
2018-Jan-24 07:30N 25°47' W 080°14'0 0.0
2018-Jan-24 07:00N 25°47' W 080°14'0 0.0
2018-Jan-24 06:30N 25°47' W 080°14'0 0.0
2018-Jan-24 05:59N 25°47' W 080°14'0 0.0
2018-Jan-24 05:30N 25°47' W 080°14'0 0.0
2018-Jan-24 05:00N 25°47' W 080°14'0 0.0
2018-Jan-24 04:29N 25°47' W 080°14'0 0.0
2018-Jan-24 04:00N 25°47' W 080°14'0 0.0
2018-Jan-24 03:30N 25°47' W 080°14'0 0.0
2018-Jan-24 02:59N 25°47' W 080°14'0 0.0
2018-Jan-24 02:29N 25°47' W 080°14'0 0.0
2018-Jan-24 02:00N 25°47' W 080°14'0 0.0
2018-Jan-24 01:30N 25°47' W 080°14'0 0.0
2018-Jan-24 01:00N 25°47' W 080°14'0 0.0
2018-Jan-24 00:29N 25°47' W 080°14'0 0.0
2018-Jan-23 23:54N 25°47' W 080°14'0 0.0
2018-Jan-23 23:30N 25°47' W 080°14'0 0.0
2018-Jan-23 22:59N 25°47' W 080°14'0 0.0
2018-Jan-23 22:29N 25°47' W 080°14'0 0.0
2018-Jan-23 21:59N 25°47' W 080°14'0 0.0
2018-Jan-23 21:29N 25°47' W 080°14'0 0.0
2018-Jan-23 20:54N 25°47' W 080°14'0 0.0
2018-Jan-23 20:26N 25°47' W 080°14'0 0.0
2018-Jan-23 19:59N 25°47' W 080°14'0 0.0
2018-Jan-23 19:29N 25°47' W 080°14'0 0.0
2018-Jan-23 18:59N 25°47' W 080°14'0 0.0
2018-Jan-23 18:29N 25°47' W 080°14'0 0.0
2018-Jan-23 17:59N 25°47' W 080°14'0 0.0
2018-Jan-23 17:29N 25°47' W 080°14'0 0.0
2018-Jan-23 16:59N 25°47' W 080°14'0 0.0
2018-Jan-23 16:25N 25°47' W 080°14'0 0.0
2018-Jan-23 15:59N 25°47' W 080°14'0 0.0
2018-Jan-23 15:30N 25°47' W 080°14'0 0.0
2018-Jan-23 14:53N 25°47' W 080°14'0 0.0
2018-Jan-23 14:29N 25°47' W 080°14'0 0.0
2018-Jan-23 13:59N 25°47' W 080°14'0 0.0
2018-Jan-23 13:29N 25°47' W 080°14'0 0.0
2018-Jan-23 12:59N 25°47' W 080°14'0 0.0
2018-Jan-23 12:29N 25°47' W 080°14'0 0.0
2018-Jan-23 11:59N 25°47' W 080°14'0 0.0
2018-Jan-23 11:29N 25°47' W 080°14'0 0.0
2018-Jan-23 10:59N 25°47' W 080°14'0 0.0
2018-Jan-23 10:29N 25°47' W 080°14'0 0.0
2018-Jan-23 09:59N 25°47' W 080°14'0 0.0
2018-Jan-23 09:29N 25°47' W 080°14'0 0.0
2018-Jan-23 08:59N 25°47' W 080°14'0 0.0
2018-Jan-23 08:29N 25°47' W 080°14'0 0.0
2018-Jan-23 07:59N 25°47' W 080°14'0 0.0
2018-Jan-23 07:29N 25°47' W 080°14'0 0.0
2018-Jan-23 06:59N 25°47' W 080°14'0 0.0
2018-Jan-23 06:29N 25°47' W 080°14'0 0.0
2018-Jan-23 05:59N 25°47' W 080°14'0 0.0
2018-Jan-23 05:29N 25°47' W 080°14'0 0.0
2018-Jan-23 04:59N 25°47' W 080°14'0 0.0
2018-Jan-23 04:29N 25°47' W 080°14'0 0.0
2018-Jan-23 03:59N 25°47' W 080°14'0 0.0
2018-Jan-23 03:29N 25°47' W 080°14'0 0.0
2018-Jan-23 02:59N 25°47' W 080°14'0 0.0
2018-Jan-23 02:29N 25°47' W 080°14'0 0.0
2018-Jan-23 01:59N 25°47' W 080°14'0 0.0
2018-Jan-23 01:29N 25°47' W 080°14'0 0.0
2018-Jan-23 00:59N 25°47' W 080°14'0 0.0
2018-Jan-23 00:29N 25°47' W 080°14'0 0.0
2018-Jan-22 23:59N 25°47' W 080°14'0 0.0
2018-Jan-22 23:29N 25°47' W 080°14'0 0.0
2018-Jan-22 22:59N 25°47' W 080°14'0 0.0
2018-Jan-22 22:29N 25°47' W 080°14'0 0.0
2018-Jan-22 21:59N 25°47' W 080°14'0 0.0
2018-Jan-22 21:29N 25°47' W 080°14'0 0.0
2018-Jan-22 20:59N 25°47' W 080°14'0 0.0
2018-Jan-22 20:29N 25°47' W 080°14'0 0.0
2018-Jan-22 19:59N 25°47' W 080°14'0 0.0
2018-Jan-22 19:29N 25°47' W 080°14'0 0.0
2018-Jan-22 18:59N 25°47' W 080°14'0 0.0
2018-Jan-22 18:29N 25°47' W 080°14'0 0.0
2018-Jan-22 17:58N 25°47' W 080°14'0 0.0
2018-Jan-22 17:25N 25°47' W 080°14'0 0.0
2018-Jan-22 16:56N 25°47' W 080°14'0 0.0
2018-Jan-22 16:28N 25°47' W 080°14'0 0.0
2018-Jan-22 15:55N 25°47' W 080°14'0 0.0
2018-Jan-22 15:29N 25°47' W 080°14'0 0.0
2018-Jan-22 14:58N 25°47' W 080°14'0 0.0
2018-Jan-22 14:28N 25°47' W 080°14'0 0.0
2018-Jan-22 13:58N 25°47' W 080°14'0 0.0
2018-Jan-22 13:28N 25°47' W 080°14'0 0.0
2018-Jan-22 12:58N 25°47' W 080°14'0 0.0
2018-Jan-22 12:28N 25°47' W 080°14'0 0.0
2018-Jan-22 11:58N 25°47' W 080°14'0 0.0
2018-Jan-22 11:28N 25°47' W 080°14'0 0.0
2018-Jan-22 10:58N 25°47' W 080°14'0 0.0
2018-Jan-22 10:28N 25°47' W 080°14'0 0.0
2018-Jan-22 09:58N 25°47' W 080°14'0 0.0
2018-Jan-22 09:28N 25°47' W 080°14'0 0.0
2018-Jan-22 08:58N 25°47' W 080°14'0 0.0
2018-Jan-22 08:28N 25°47' W 080°14'0 0.0
2018-Jan-22 08:01N 25°47' W 080°14'0 0.0
2018-Jan-22 07:31N 25°47' W 080°14'0 0.0
2018-Jan-22 07:00N 25°47' W 080°14'0 0.0
2018-Jan-22 06:30N 25°47' W 080°14'0 0.0
2018-Jan-22 06:00N 25°47' W 080°14'0 0.0
2018-Jan-22 05:30N 25°47' W 080°14'0 0.0
2018-Jan-22 05:00N 25°47' W 080°14'0 0.0
2018-Jan-22 04:28N 25°47' W 080°14'0 0.0
2018-Jan-22 04:00N 25°47' W 080°14'0 0.0
2018-Jan-22 03:30N 25°47' W 080°14'0 0.0
2018-Jan-22 03:00N 25°47' W 080°14'0 0.0
2018-Jan-22 02:30N 25°47' W 080°14'0 0.0
2018-Jan-22 02:00N 25°47' W 080°14'0 0.0
2018-Jan-22 01:30N 25°47' W 080°14'0 0.0
2018-Jan-22 01:00N 25°47' W 080°14'0 0.0
2018-Jan-22 00:30N 25°47' W 080°14'0 0.0
2018-Jan-21 23:58N 25°47' W 080°14'0 0.0
2018-Jan-21 23:28N 25°47' W 080°14'0 0.0
2018-Jan-21 23:00N 25°47' W 080°14'0 0.0
2018-Jan-21 22:30N 25°47' W 080°14'0 0.0
2018-Jan-21 22:00N 25°47' W 080°14'0 0.0
2018-Jan-21 21:30N 25°47' W 080°14'0 0.0
2018-Jan-21 20:58N 25°47' W 080°14'0 0.0
2018-Jan-21 20:30N 25°47' W 080°14'0 0.0
2018-Jan-21 20:00N 25°47' W 080°14'0 0.0
2018-Jan-21 19:30N 25°47' W 080°14'0 0.0
2018-Jan-21 19:00N 25°47' W 080°14'0 0.0
2018-Jan-21 18:30N 25°47' W 080°14'0 0.0
2018-Jan-21 17:51N 25°47' W 080°14'0 0.0
2018-Jan-21 17:30N 25°47' W 080°14'0 0.0
2018-Jan-21 16:54N 25°47' W 080°14'0 0.0
2018-Jan-21 16:27N 25°47' W 080°14'0 0.0
2018-Jan-21 15:57N 25°47' W 080°14'0 0.0
2018-Jan-21 15:27N 25°47' W 080°14'0 0.0
2018-Jan-21 14:57N 25°47' W 080°14'0 0.0
2018-Jan-21 14:30N 25°47' W 080°14'0 0.0
2018-Jan-21 14:00N 25°47' W 080°14'0 0.0
2018-Jan-21 13:30N 25°47' W 080°14'0 0.0
2018-Jan-21 13:00N 25°47' W 080°14'0 0.0
2018-Jan-21 12:30N 25°47' W 080°14'0 0.0
2018-Jan-21 12:00N 25°47' W 080°14'0 0.0
2018-Jan-21 11:30N 25°47' W 080°14'0 0.0
2018-Jan-21 10:57N 25°47' W 080°14'0 0.0
2018-Jan-21 10:27N 25°47' W 080°14'0 0.0
2018-Jan-21 10:00N 25°47' W 080°14'0 0.0
2018-Jan-21 09:30N 25°47' W 080°14'0 0.0
2018-Jan-21 08:57N 25°47' W 080°14'0 0.0
2018-Jan-21 08:24N 25°47' W 080°14'0 0.0
2018-Jan-21 07:57N 25°47' W 080°14'0 0.0
2018-Jan-21 07:30N 25°47' W 080°14'0 0.0
2018-Jan-21 06:57N 25°47' W 080°14'0 0.0
2018-Jan-21 06:30N 25°47' W 080°14'0 0.0
2018-Jan-21 06:00N 25°47' W 080°14'0 0.0
2018-Jan-21 05:30N 25°47' W 080°14'0 0.0
2018-Jan-21 05:00N 25°47' W 080°14'0 0.0
2018-Jan-21 04:30N 25°47' W 080°14'0 0.0
2018-Jan-21 04:00N 25°47' W 080°14'  

Dump ship's entire track history